Skip Navigation LinksHome page > Weather > Current weather Skip Navigation Links

Current Weather

Alert, Nunavut

For information only: do not use for flight planning or navigation.
Latest weather
Observation time Friday, February 12, 2016 12:40 PM EST
Local time Friday, February 12, 2016 1:03 PM EST
Flight conditions Low Instrument Meteorological Conditions
Winds
Wind direction North-Northwest (340°)
Wind speed 23 mph
Visibility 0.125 mi.
Present weather heavy blowing snow
Sky condition
Ceiling 100 ft. indefinite
Cloud layer vertical visibility 100 ft.
Temperature -9°F
Dewpoint -17°F
Altimeter 30.33 in.Hg
Derived measurements
Relative humidity 70%
Wind chill -36°F
Density altitude -5366 ft.
Sea-level pressure 30.35 in.Hg
Remarks
Special weather observation.
Last observation of the day.
METAR SPECI CYLT 121740Z 34020KT 1/8SM +BLSN VV001 M23/M27 A3033 RMK BLSN8 LAST OBS/NEXT 151300 UTC SLP278

Settings

Location code

InnerDrive.Weather 4.0.5722.1 Release CLR 4.0.30319.34209
Copyright ©2015 Inner Drive Technology. All rights reserved. Portions Copyright ©1986-2015 David Braverman.

Find weather

Site navigation


Skip Navigation Links

Place info

Page info

PayPal - The safer, easier way to pay online!

Return home.

Copyright ©2016 Inner Drive Technology. Purveyors of fine, hand-crafted computer software. Page printed 2016-02-12T18:03:47 UTC.